MCO weather

Public forecast

Using degrees Fahrenheit for public forecast. Weather courtesy of forecast.io.

Current aviation weather report (METAR) for Orlando International Airport

Retrieved 2020/08/10 09:53 UTC (28 minutes ago):

KMCO 100953Z 35003KT 10SM CLR 25/24 A3010 RMK AO2 SLP191 T02500244

Aviation forecast (TAF) for Orlando International Airport

Retrieved 2020/08/10 06:40 UTC (4 hours ago):

TAF KMCO 100538Z 1006/1112 VRB03KT P6SM SCT030 BKN150 FM101500 VRB05KT P6SM SCT035 SCT250 FM101900 12007KT P6SM VCTS SCT040CB BKN060 FM110100 VRB04KT P6SM SCT050 BKN250